Time;durP1;ratioP1;P1;durP2;ratioP2;P2;SDS_P1;SDS_P2;PMS_P1;PMS_P2;Temp;Humidity;BMP_temperature;BMP_pressure;BME280_temperature;BME280_humidity;BME280_pressure;Samples;Min_cycle;Max_cycle;Signal;HPM_P1;HPM_P2
2022/10/22 00:00:48;;;;;;;9.33;6.00;;;14.50;99.90;;;;;;5074900;28;20242;-69
2022/10/22 00:03:13;;;;;;;7.43;4.90;;;14.50;99.90;;;;;;5074703;28;20170;-69
2022/10/22 00:05:39;;;;;;;8.30;4.90;;;14.50;99.90;;;;;;5074208;28;20181;-69
2022/10/22 00:08:04;;;;;;;6.47;5.37;;;14.50;99.90;;;;;;5073534;28;20193;-69
2022/10/22 00:10:30;;;;;;;8.60;5.00;;;14.40;99.90;;;;;;5062422;28;20194;-69
2022/10/22 00:12:55;;;;;;;5.30;4.70;;;14.50;99.90;;;;;;5074284;28;20206;-69
2022/10/22 00:15:21;;;;;;;5.93;5.33;;;14.50;99.90;;;;;;5074281;28;20162;-69
2022/10/22 00:17:48;;;;;;;8.73;4.87;;;14.60;99.90;;;;;;5074589;28;20173;-69
2022/10/22 00:20:14;;;;;;;5.77;4.93;;;14.60;99.90;;;;;;5072267;28;20163;-69
2022/10/22 00:22:39;;;;;;;6.03;4.70;;;14.60;99.90;;;;;;5054588;28;20420;-69
2022/10/22 00:25:05;;;;;;;5.73;4.63;;;14.60;99.90;;;;;;5054150;28;20194;-69
2022/10/22 00:27:30;;;;;;;7.60;5.13;;;14.70;99.90;;;;;;5054277;28;20648;-69
2022/10/22 00:29:56;;;;;;;7.17;4.70;;;14.70;99.90;;;;;;5054217;28;20195;-70
2022/10/22 00:32:21;;;;;;;5.47;4.30;;;14.80;99.90;;;;;;5086945;28;20186;-69
2022/10/22 00:34:47;;;;;;;6.20;4.80;;;14.90;99.90;;;;;;5073964;28;20733;-69
2022/10/22 00:37:13;;;;;;;6.50;4.60;;;14.90;99.90;;;;;;5074158;28;20166;-69
2022/10/22 00:39:38;;;;;;;7.63;4.53;;;14.80;99.90;;;;;;5074125;28;20282;-69
2022/10/22 00:42:04;;;;;;;6.97;5.20;;;14.90;99.90;;;;;;5074081;28;20166;-70
2022/10/22 00:45:07;;;;;;;7.80;5.57;;;14.80;99.90;;;;;;5069371;28;20171;-69
2022/10/22 00:47:40;;;;;;;6.93;5.50;;;14.80;99.90;;;;;;5053878;28;20249;-70
2022/10/22 00:50:10;;;;;;;14.87;5.43;;;14.80;99.90;;;;;;5053800;28;20465;-69
2022/10/22 00:52:36;;;;;;;7.60;5.70;;;14.90;99.90;;;;;;5054215;28;21071;-70
2022/10/22 00:55:02;;;;;;;6.23;5.30;;;14.90;99.90;;;;;;5053668;28;20409;-70
2022/10/22 00:57:28;;;;;;;8.10;4.87;;;14.90;99.90;;;;;;5063681;28;20177;-70
2022/10/22 00:59:55;;;;;;;10.63;5.23;;;14.90;99.90;;;;;;5073974;28;20432;-70
2022/10/22 01:02:21;;;;;;;20.37;5.77;;;14.90;99.90;;;;;;5073660;28;20163;-69
2022/10/22 01:04:47;;;;;;;6.70;5.50;;;14.90;99.90;;;;;;5073229;28;20414;-69
2022/10/22 01:07:18;;;;;;;9.87;5.70;;;14.90;99.90;;;;;;5073192;28;20173;-69
2022/10/22 01:09:56;;;;;;;11.70;5.50;;;14.90;99.90;;;;;;5058850;28;20199;-69
2022/10/22 01:12:41;;;;;;;6.37;4.80;;;14.90;99.90;;;;;;5085732;28;20442;-69
2022/10/22 01:15:15;;;;;;;12.30;4.97;;;14.90;99.90;;;;;;5053190;28;20429;-69
2022/10/22 01:17:59;;;;;;;8.60;6.10;;;14.90;99.90;;;;;;5053636;28;20793;-69
2022/10/22 01:21:02;;;;;;;11.50;6.40;;;14.90;99.90;;;;;;5057495;28;20408;-69
2022/10/22 01:24:06;;;;;;;8.07;6.43;;;14.90;99.90;;;;;;5074085;28;20401;-69
2022/10/22 01:27:02;;;;;;;11.40;5.57;;;14.90;99.90;;;;;;5072912;28;20407;-70
2022/10/22 01:29:42;;;;;;;6.20;5.27;;;15.00;99.90;;;;;;5072095;28;20517;-69
2022/10/22 01:32:14;;;;;;;7.00;5.70;;;14.90;99.90;;;;;;5070636;28;20906;-70
2022/10/22 01:34:42;;;;;;;7.73;5.43;;;14.90;99.90;;;;;;5052882;28;20396;-72
2022/10/22 01:37:11;;;;;;;9.53;6.10;;;14.90;99.90;;;;;;5053019;28;20437;-70
2022/10/22 01:39:38;;;;;;;11.73;6.37;;;14.90;99.90;;;;;;5053032;28;20517;-70
2022/10/22 01:42:04;;;;;;;7.33;5.50;;;14.90;99.90;;;;;;5052973;28;20559;-70
2022/10/22 01:44:31;;;;;;;8.40;5.27;;;14.90;99.90;;;;;;5059218;28;20452;-70
2022/10/22 01:47:33;;;;;;;10.33;5.40;;;14.80;99.90;;;;;;5071219;28;20170;-70
2022/10/22 01:50:24;;;;;;;7.83;4.67;;;14.80;99.90;;;;;;5072436;28;20551;-70
2022/10/22 01:53:05;;;;;;;7.60;5.57;;;14.80;99.90;;;;;;5072764;28;20396;-71
2022/10/22 01:55:40;;;;;;;7.00;5.23;;;14.80;99.90;;;;;;5072529;28;20400;-70
2022/10/22 01:58:35;;;;;;;6.43;4.90;;;14.70;99.90;;;;;;5053134;28;20475;-70
2022/10/22 02:01:26;;;;;;;11.20;5.83;;;14.70;99.90;;;;;;5052634;28;20405;-71
2022/10/22 02:03:57;;;;;;;9.40;5.60;;;14.60;99.90;;;;;;5052455;28;20409;-70
2022/10/22 02:06:25;;;;;;;7.47;5.00;;;14.70;99.90;;;;;;5052199;28;20401;-70
2022/10/22 02:08:53;;;;;;;8.77;5.73;;;14.60;99.90;;;;;;5061172;28;20439;-69
2022/10/22 02:11:19;;;;;;;11.47;5.43;;;14.60;99.90;;;;;;5072724;28;20832;-70
2022/10/22 02:13:51;;;;;;;8.90;6.10;;;14.50;99.90;;;;;;5073078;28;20422;-70
2022/10/22 02:16:29;;;;;;;11.53;5.23;;;14.60;99.90;;;;;;5071499;28;20446;-70
2022/10/22 02:18:58;;;;;;;8.03;5.87;;;14.60;99.90;;;;;;5072395;28;20420;-69
2022/10/22 02:21:25;;;;;;;6.47;5.70;;;14.60;99.90;;;;;;5060117;28;20422;-69
2022/10/22 02:23:51;;;;;;;10.60;6.07;;;14.60;99.90;;;;;;5052338;28;20401;-70
2022/10/22 02:26:31;;;;;;;9.93;6.53;;;14.50;99.90;;;;;;5051920;28;20412;-70
2022/10/22 02:29:14;;;;;;;13.33;5.20;;;14.50;99.90;;;;;;5052433;28;20324;-70
2022/10/22 02:31:43;;;;;;;6.60;5.40;;;14.50;99.90;;;;;;5052291;28;20983;-69
2022/10/22 02:34:13;;;;;;;7.73;6.40;;;14.40;99.90;;;;;;5068241;28;20443;-71
2022/10/22 02:36:40;;;;;;;8.53;5.73;;;14.40;99.90;;;;;;5072082;28;20461;-70
2022/10/22 02:39:08;;;;;;;9.57;5.23;;;14.30;99.90;;;;;;5072015;28;20425;-70
2022/10/22 02:41:34;;;;;;;8.23;6.03;;;14.30;99.90;;;;;;5072039;28;20404;-70
2022/10/22 02:44:01;;;;;;;8.37;6.37;;;14.20;99.90;;;;;;5071304;28;20918;-70
2022/10/22 02:46:27;;;;;;;9.67;7.10;;;14.10;99.90;;;;;;5084059;28;20426;-69
2022/10/22 02:48:53;;;;;;;8.97;6.60;;;14.20;99.90;;;;;;5051808;28;20479;-70
2022/10/22 02:51:18;;;;;;;12.10;7.40;;;14.20;99.90;;;;;;5051922;28;20840;-70
2022/10/22 02:53:44;;;;;;;12.60;5.70;;;14.20;99.90;;;;;;5084451;28;20169;-70
2022/10/22 02:56:10;;;;;;;7.90;6.20;;;14.10;99.90;;;;;;5052135;28;20178;-71
2022/10/22 02:58:35;;;;;;;9.80;6.00;;;14.10;99.90;;;;;;5071944;28;20182;-69
2022/10/22 03:01:01;;;;;;;13.30;6.60;;;14.10;99.90;;;;;;5071888;28;20247;-70
2022/10/22 03:03:27;;;;;;;7.60;5.70;;;14.10;99.90;;;;;;5071758;28;20189;-69
2022/10/22 03:05:52;;;;;;;12.70;6.70;;;14.10;99.90;;;;;;5071661;28;20219;-71
2022/10/22 03:08:18;;;;;;;8.70;4.90;;;14.10;99.90;;;;;;5068598;28;20191;-70
2022/10/22 03:10:43;;;;;;;7.50;5.47;;;14.10;99.90;;;;;;5051543;28;20194;-71
2022/10/22 03:13:09;;;;;;;10.13;7.00;;;14.00;99.90;;;;;;5052602;28;20165;-70
2022/10/22 03:15:34;;;;;;;8.23;5.90;;;14.00;99.90;;;;;;5052384;28;20195;-70
2022/10/22 03:18:00;;;;;;;8.87;5.50;;;14.00;99.90;;;;;;5070281;28;20194;-70
2022/10/22 03:20:26;;;;;;;13.03;6.73;;;13.90;99.90;;;;;;5072862;28;20182;-70
2022/10/22 03:22:52;;;;;;;8.80;5.20;;;13.90;99.90;;;;;;5072937;28;20165;-70
2022/10/22 03:25:21;;;;;;;10.03;5.77;;;13.80;99.90;;;;;;5072036;28;20644;-70
2022/10/22 03:27:49;;;;;;;8.13;5.13;;;13.80;99.90;;;;;;5056579;28;20421;-70
2022/10/22 03:30:15;;;;;;;8.20;5.40;;;13.80;99.90;;;;;;5052533;28;20437;-70
2022/10/22 03:32:40;;;;;;;6.50;5.53;;;13.80;99.90;;;;;;5054198;28;20416;-70
2022/10/22 03:35:06;;;;;;;10.83;4.60;;;13.70;99.90;;;;;;5055994;28;20166;-70
2022/10/22 03:37:33;;;;;;;5.63;4.97;;;13.60;99.90;;;;;;5072038;28;20170;-70
2022/10/22 03:39:59;;;;;;;5.67;4.20;;;13.70;99.90;;;;;;5075324;28;20173;-71
2022/10/22 03:42:24;;;;;;;7.23;5.17;;;13.60;99.90;;;;;;5074772;28;20405;-71
2022/10/22 03:44:50;;;;;;;6.00;4.40;;;13.60;99.90;;;;;;5074715;28;20287;-70
2022/10/22 03:47:16;;;;;;;5.57;3.90;;;13.50;99.90;;;;;;5060811;28;20175;-70
2022/10/22 03:49:41;;;;;;;5.00;4.50;;;13.50;99.90;;;;;;5054697;28;20273;-70
2022/10/22 03:52:12;;;;;;;5.83;4.63;;;13.50;99.90;;;;;;5054954;28;20194;-69
2022/10/22 03:54:38;;;;;;;8.63;4.87;;;13.50;99.90;;;;;;5054795;28;20163;-70
2022/10/22 03:57:04;;;;;;;6.17;4.67;;;13.50;99.90;;;;;;5054823;28;20397;-69
2022/10/22 03:59:37;;;;;;;9.70;5.87;;;13.50;99.90;;;;;;5071224;28;20475;-70
2022/10/22 04:02:03;;;;;;;5.47;4.87;;;13.40;99.90;;;;;;5074878;28;20404;-69
2022/10/22 04:04:29;;;;;;;5.50;3.90;;;13.40;99.90;;;;;;5074529;28;20529;-69
2022/10/22 04:06:55;;;;;;;12.00;4.73;;;13.40;99.90;;;;;;5074787;28;20529;-70
2022/10/22 04:09:21;;;;;;;7.43;4.27;;;13.30;99.90;;;;;;5074775;28;20528;-70
2022/10/22 04:11:46;;;;;;;6.93;4.03;;;13.30;99.90;;;;;;5058411;28;20460;-69
2022/10/22 04:14:12;;;;;;;4.00;3.40;;;13.20;99.90;;;;;;5054678;28;20171;-71
2022/10/22 04:16:41;;;;;;;5.70;4.67;;;13.20;99.90;;;;;;5086675;28;20175;-69
2022/10/22 04:19:07;;;;;;;6.53;5.30;;;13.20;99.90;;;;;;5054143;28;20274;-70
2022/10/22 04:21:33;;;;;;;5.53;5.03;;;13.20;99.90;;;;;;5054395;28;20445;-71
2022/10/22 04:23:59;;;;;;;7.77;5.00;;;13.20;99.90;;;;;;5068145;28;20828;-69
2022/10/22 04:26:25;;;;;;;6.63;4.53;;;13.20;99.90;;;;;;5034045;28;20410;-69
2022/10/22 04:28:51;;;;;;;9.27;4.60;;;13.20;99.90;;;;;;5034366;28;20195;-69
2022/10/22 04:31:20;;;;;;;9.97;4.67;;;13.20;99.90;;;;;;5034307;28;20438;-69
2022/10/22 04:33:45;;;;;;;8.47;5.40;;;13.20;99.90;;;;;;5038179;28;20437;-69
2022/10/22 04:36:17;;;;;;;5.97;4.53;;;13.20;99.90;;;;;;5073923;28;20444;-69
2022/10/22 04:38:44;;;;;;;5.23;4.30;;;13.20;99.90;;;;;;5074272;28;20190;-69
2022/10/22 04:41:15;;;;;;;5.50;3.33;;;13.20;99.90;;;;;;5074142;28;20420;-69
2022/10/22 04:43:41;;;;;;;5.50;3.97;;;13.20;99.90;;;;;;5073917;28;20492;-69
2022/10/22 04:46:08;;;;;;;8.90;3.97;;;13.10;99.90;;;;;;5069999;28;20425;-69
2022/10/22 04:48:38;;;;;;;4.87;3.50;;;13.00;99.90;;;;;;5054008;28;20477;-69
2022/10/22 04:51:05;;;;;;;11.97;4.50;;;13.00;99.90;;;;;;5053818;28;20465;-69
2022/10/22 04:53:32;;;;;;;5.50;3.90;;;13.00;99.90;;;;;;5053945;28;20401;-70
2022/10/22 04:56:15;;;;;;;4.83;3.63;;;13.00;99.90;;;;;;5053681;28;20471;-69
2022/10/22 04:58:42;;;;;;;6.63;4.00;;;13.00;99.90;;;;;;5063674;28;21003;-69
2022/10/22 05:01:14;;;;;;;5.60;4.53;;;13.10;99.90;;;;;;5073560;28;20453;-69
2022/10/22 05:03:40;;;;;;;3.93;3.53;;;13.10;99.90;;;;;;5073686;28;20405;-69
2022/10/22 05:06:07;;;;;;;5.60;5.10;;;13.00;99.90;;;;;;5073538;28;20500;-69
2022/10/22 05:08:33;;;;;;;6.87;4.23;;;13.00;99.90;;;;;;5073925;28;20955;-70
2022/10/22 05:10:58;;;;;;;5.83;4.90;;;13.00;99.90;;;;;;5060593;28;20536;-69
2022/10/22 05:13:24;;;;;;;5.60;4.80;;;13.00;99.90;;;;;;5086309;28;20394;-69
2022/10/22 05:15:49;;;;;;;7.23;3.90;;;13.10;99.90;;;;;;5054143;28;20174;-69
2022/10/22 05:18:15;;;;;;;8.73;3.63;;;13.10;99.90;;;;;;5053403;28;20266;-69
2022/10/22 05:20:41;;;;;;;5.20;3.83;;;13.20;99.90;;;;;;5054689;28;20167;-69
2022/10/22 05:23:06;;;;;;;18.30;4.20;;;13.20;99.90;;;;;;5067375;28;20200;-69
2022/10/22 05:25:36;;;;;;;6.40;3.93;;;13.20;99.90;;;;;;5072972;28;20808;-69
2022/10/22 05:28:02;;;;;;;5.10;3.43;;;13.20;99.90;;;;;;5073271;28;20186;-69
2022/10/22 05:30:27;;;;;;;4.27;2.90;;;13.20;99.90;;;;;;5073149;28;20454;-70
2022/10/22 05:32:53;;;;;;;7.43;4.37;;;13.20;99.90;;;;;;5073252;28;20529;-70
2022/10/22 05:35:18;;;;;;;4.57;3.63;;;13.20;99.90;;;;;;5056126;28;20171;-69
2022/10/22 05:37:44;;;;;;;3.03;2.63;;;13.20;99.90;;;;;;5053046;28;20163;-70
2022/10/22 05:40:10;;;;;;;4.07;2.97;;;13.10;99.90;;;;;;5053055;28;20167;-69
2022/10/22 05:42:35;;;;;;;3.70;2.97;;;13.00;99.90;;;;;;5052972;28;20167;-69
2022/10/22 05:45:01;;;;;;;4.83;3.93;;;12.90;99.90;;;;;;5052709;28;20412;-69
2022/10/22 05:47:29;;;;;;;6.33;2.73;;;12.90;99.90;;;;;;5067504;28;20200;-70
2022/10/22 05:49:56;;;;;;;11.00;3.20;;;12.90;99.90;;;;;;5072639;28;20198;-69
2022/10/22 05:52:22;;;;;;;4.53;2.60;;;12.90;99.90;;;;;;5072782;28;20412;-70
2022/10/22 05:54:47;;;;;;;4.33;2.90;;;12.80;99.90;;;;;;5071702;28;20411;-69
2022/10/22 05:57:13;;;;;;;5.30;3.10;;;12.90;99.90;;;;;;5072793;28;20403;-69
2022/10/22 05:59:38;;;;;;;6.10;4.30;;;13.00;99.90;;;;;;5054044;28;20286;-70
2022/10/22 06:02:04;;;;;;;7.40;3.63;;;13.00;99.90;;;;;;5052642;28;20663;-70
2022/10/22 06:04:29;;;;;;;3.70;3.40;;;13.10;99.90;;;;;;5052686;28;20557;-69
2022/10/22 06:06:55;;;;;;;4.53;3.43;;;13.10;99.90;;;;;;5053874;28;20191;-69
2022/10/22 06:09:26;;;;;;;4.13;2.40;;;13.10;99.90;;;;;;5053556;28;20189;-69
2022/10/22 06:11:52;;;;;;;7.00;3.97;;;13.10;99.90;;;;;;5068151;28;20203;-69
2022/10/22 06:14:19;;;;;;;8.20;3.47;;;13.20;99.90;;;;;;5033395;28;20428;-69
2022/10/22 06:16:44;;;;;;;5.60;3.50;;;13.20;99.90;;;;;;5033712;28;20214;-69
2022/10/22 06:19:15;;;;;;;3.67;3.37;;;13.20;99.90;;;;;;5032896;28;20421;-70
2022/10/22 06:21:40;;;;;;;7.33;2.70;;;13.20;99.90;;;;;;5032418;28;20502;-69
2022/10/22 06:24:07;;;;;;;5.03;3.63;;;13.20;99.90;;;;;;5067511;28;20492;-70
2022/10/22 06:26:32;;;;;;;5.00;2.90;;;13.20;99.90;;;;;;5071894;28;20171;-70
2022/10/22 06:28:59;;;;;;;3.43;3.07;;;13.10;99.90;;;;;;5072211;28;20420;-71
2022/10/22 06:31:25;;;;;;;14.03;3.70;;;13.10;99.90;;;;;;5070804;28;20190;-70
2022/10/22 06:33:51;;;;;;;5.30;3.20;;;13.10;99.90;;;;;;5052195;28;20401;-69
2022/10/22 06:36:20;;;;;;;7.20;4.00;;;13.00;99.90;;;;;;5084095;28;20409;-69
2022/10/22 06:38:45;;;;;;;10.37;3.30;;;13.00;99.90;;;;;;5052684;28;20429;-69
2022/10/22 06:41:15;;;;;;;5.77;3.30;;;13.10;99.90;;;;;;5052847;28;20405;-69
2022/10/22 06:43:48;;;;;;;6.47;3.20;;;13.00;99.90;;;;;;5071587;28;20182;-69
2022/10/22 06:46:19;;;;;;;3.90;3.50;;;13.10;99.90;;;;;;5071845;28;20396;-69
2022/10/22 06:48:57;;;;;;;6.60;3.37;;;13.10;99.90;;;;;;5071986;28;20435;-70
2022/10/22 06:51:23;;;;;;;4.50;3.37;;;13.10;99.90;;;;;;5073265;28;20448;-69
2022/10/22 06:53:49;;;;;;;4.53;3.20;;;13.10;99.90;;;;;;5067624;28;20746;-69
2022/10/22 06:56:18;;;;;;;3.83;3.33;;;13.20;99.90;;;;;;5052595;28;20451;-69
2022/10/22 06:58:46;;;;;;;6.23;3.70;;;13.20;99.90;;;;;;5051834;28;20559;-69
2022/10/22 07:01:13;;;;;;;5.40;3.57;;;13.20;99.90;;;;;;5051689;28;20835;-69
2022/10/22 07:03:40;;;;;;;7.70;3.70;;;13.30;99.90;;;;;;5051822;28;20987;-68
2022/10/22 07:06:08;;;;;;;4.33;3.70;;;13.40;99.90;;;;;;5060865;28;20465;-70
2022/10/22 07:08:35;;;;;;;5.23;3.40;;;13.40;99.90;;;;;;5076034;28;20515;-69
2022/10/22 07:11:09;;;;;;;4.43;3.83;;;13.50;99.90;;;;;;5075792;28;20448;-70
2022/10/22 07:13:35;;;;;;;3.37;3.07;;;13.70;99.90;;;;;;5075951;28;20406;-69
2022/10/22 07:16:01;;;;;;;5.10;3.57;;;13.80;99.90;;;;;;5075581;28;20404;-69
2022/10/22 07:18:27;;;;;;;7.77;3.60;;;14.00;99.90;;;;;;5061775;28;20421;-69
2022/10/22 07:20:53;;;;;;;4.77;3.40;;;14.10;99.90;;;;;;5055741;28;20922;-69
2022/10/22 07:23:18;;;;;;;4.77;4.33;;;14.30;99.90;;;;;;5055849;28;20199;-69
2022/10/22 07:25:44;;;;;;;7.53;3.77;;;14.50;99.90;;;;;;5055345;28;20194;-69
2022/10/22 07:28:09;;;;;;;4.50;2.83;;;14.60;99.90;;;;;;5055587;28;20629;-70
2022/10/22 07:30:36;;;;;;;4.40;2.80;;;14.70;99.90;;;;;;5069180;28;20194;-70
2022/10/22 07:33:02;;;;;;;5.57;3.10;;;14.90;99.90;;;;;;5075326;28;20175;-69
2022/10/22 07:35:28;;;;;;;5.70;3.77;;;15.00;99.90;;;;;;5075237;28;20411;-70
2022/10/22 07:37:53;;;;;;;4.03;3.00;;;15.10;99.90;;;;;;5075505;28;20424;-70
2022/10/22 07:40:19;;;;;;;3.30;2.57;;;15.20;99.90;;;;;;5075447;28;20170;-69
2022/10/22 07:42:44;;;;;;;8.00;3.10;;;15.30;99.90;;;;;;5061095;28;20220;-69
2022/10/22 07:45:10;;;;;;;3.03;2.73;;;15.40;99.90;;;;;;5055431;28;20182;-69
2022/10/22 07:47:35;;;;;;;5.63;2.80;;;15.50;99.90;;;;;;5055165;28;20175;-70
2022/10/22 07:50:01;;;;;;;5.50;2.97;;;15.60;99.90;;;;;;5054992;28;20707;-70
2022/10/22 07:52:27;;;;;;;5.80;2.20;;;15.80;99.90;;;;;;5068363;28;20177;-69
2022/10/22 07:54:52;;;;;;;3.97;3.10;;;16.00;99.90;;;;;;5074761;28;20205;-69
2022/10/22 07:57:18;;;;;;;3.63;2.50;;;16.10;99.90;;;;;;5075691;28;20794;-69
2022/10/22 07:59:43;;;;;;;4.10;1.70;;;16.10;99.90;;;;;;5074449;28;20216;-69
2022/10/22 08:02:11;;;;;;;2.30;1.70;;;16.20;99.90;;;;;;5075772;28;20159;-69
2022/10/22 08:04:37;;;;;;;3.60;2.43;;;16.30;99.90;;;;;;5075840;28;20639;-69
2022/10/22 08:07:03;;;;;;;5.43;2.50;;;16.40;99.90;;;;;;5074964;28;20427;-70
2022/10/22 08:09:29;;;;;;;2.60;1.70;;;16.50;99.90;;;;;;5070135;28;20822;-69
2022/10/22 08:11:54;;;;;;;6.93;2.10;;;16.50;99.90;;;;;;5056361;28;20460;-73
2022/10/22 08:14:20;;;;;;;2.63;1.53;;;16.50;99.90;;;;;;5087085;28;20171;-69
2022/10/22 08:16:45;;;;;;;2.23;1.57;;;16.50;99.90;;;;;;5087912;28;20171;-70
2022/10/22 08:19:12;;;;;;;1.40;1.30;;;16.50;99.90;;;;;;5058373;28;20251;-69
2022/10/22 08:21:38;;;;;;;2.87;1.60;;;16.60;99.90;;;;;;5074284;28;20251;-69
2022/10/22 08:24:05;;;;;;;4.13;1.80;;;16.60;99.90;;;;;;5075447;28;20411;-69
2022/10/22 08:26:31;;;;;;;2.20;1.60;;;16.60;99.90;;;;;;5074599;28;20404;-69
2022/10/22 08:28:56;;;;;;;2.47;2.27;;;16.60;99.90;;;;;;5072292;28;20432;-69
2022/10/22 08:31:22;;;;;;;6.70;2.10;;;16.70;99.90;;;;;;5054717;28;20224;-69
2022/10/22 08:33:48;;;;;;;2.63;1.47;;;16.80;99.90;;;;;;5054370;28;20163;-69
2022/10/22 08:36:13;;;;;;;3.53;2.20;;;17.00;99.90;;;;;;5054098;28;20171;-69
2022/10/22 08:38:39;;;;;;;3.63;1.83;;;17.10;99.90;;;;;;5054299;28;20425;-69
2022/10/22 08:41:12;;;;;;;3.40;1.83;;;17.10;99.90;;;;;;5055583;28;20644;-69
2022/10/22 08:44:14;;;;;;;7.20;2.53;;;17.20;99.90;;;;;;5074132;28;20257;-70
2022/10/22 08:46:46;;;;;;;2.80;1.60;;;17.30;99.90;;;;;;5072963;28;20491;-69
2022/10/22 08:49:31;;;;;;;2.10;1.47;;;17.30;99.90;;;;;;5074008;28;20525;-69
2022/10/22 08:51:57;;;;;;;7.30;1.90;;;17.40;99.90;;;;;;5073992;28;20448;-71
2022/10/22 08:54:39;;;;;;;10.03;2.00;;;17.70;99.90;;;;;;5062003;28;20501;-69
2022/10/22 08:57:07;;;;;;;2.77;1.70;;;17.90;99.90;;;;;;5054049;28;20551;-70
2022/10/22 08:59:47;;;;;;;4.80;1.50;;;18.20;99.90;;;;;;5053848;28;20918;-70
2022/10/22 09:02:45;;;;;;;5.53;3.23;;;18.50;99.90;;;;;;5053930;28;20742;-70
2022/10/22 09:05:16;;;;;;;5.97;1.63;;;18.90;99.90;;;;;;5056568;28;20509;-70
2022/10/22 09:07:47;;;;;;;3.30;1.70;;;19.10;99.90;;;;;;5073462;28;20446;-69
2022/10/22 09:10:13;;;;;;;4.13;1.40;;;19.10;99.90;;;;;;5073646;28;20508;-69
2022/10/22 09:12:38;;;;;;;4.33;1.53;;;19.00;99.90;;;;;;5073686;28;20488;-71
2022/10/22 09:15:04;;;;;;;1.87;1.67;;;19.10;99.90;;;;;;5073290;28;20158;-70
2022/10/22 09:17:37;;;;;;;8.60;1.53;;;19.10;99.90;;;;;;5069319;28;20163;-70
2022/10/22 09:20:22;;;;;;;1.97;1.20;;;19.00;99.90;;;;;;5053504;28;20393;-70
2022/10/22 09:23:17;;;;;;;4.40;1.20;;;18.90;99.90;;;;;;5053369;28;20397;-69
2022/10/22 09:25:44;;;;;;;3.33;1.50;;;18.80;99.90;;;;;;5085438;28;20436;-69
2022/10/22 09:28:10;;;;;;;3.00;1.40;;;18.70;99.90;;;;;;5053301;28;20421;-69
2022/10/22 09:30:37;;;;;;;1.80;1.27;;;18.70;99.90;;;;;;5065949;28;20581;-69
2022/10/22 09:33:09;;;;;;;2.30;1.10;;;18.60;99.90;;;;;;5071626;28;20435;-70
2022/10/22 09:35:49;;;;;;;2.03;1.27;;;18.60;99.90;;;;;;5072863;28;20890;-69
2022/10/22 09:38:19;;;;;;;4.73;1.10;;;18.50;99.90;;;;;;5073029;28;20801;-69
2022/10/22 09:40:51;;;;;;;2.10;0.90;;;18.40;99.90;;;;;;5073070;28;20404;-69
2022/10/22 09:43:17;;;;;;;1.80;1.10;;;18.20;99.90;;;;;;5053002;28;20528;-69
2022/10/22 09:45:47;;;;;;;1.30;1.03;;;18.30;99.90;;;;;;5052729;28;20417;-69
2022/10/22 09:48:25;;;;;;;2.90;1.00;;;18.30;99.90;;;;;;5052821;28;20429;-69
2022/10/22 09:51:17;;;;;;;7.73;2.80;;;18.30;99.90;;;;;;5052759;28;20492;-69
2022/10/22 09:53:44;;;;;;;1.70;0.90;;;18.30;99.90;;;;;;5058463;28;20785;-70
2022/10/22 09:56:34;;;;;;;1.73;1.00;;;18.30;99.90;;;;;;5072227;28;20417;-70
2022/10/22 09:59:01;;;;;;;2.80;0.93;;;18.30;99.90;;;;;;5068537;28;20516;-69
2022/10/22 10:01:33;;;;;;;2.40;1.20;;;18.20;99.90;;;;;;5072776;28;20461;-70
2022/10/22 10:04:07;;;;;;;3.20;1.13;;;18.10;99.90;;;;;;5071382;28;20504;-69
2022/10/22 10:06:34;;;;;;;2.50;1.00;;;18.10;99.90;;;;;;5057862;28;20425;-70
2022/10/22 10:09:04;;;;;;;2.77;1.10;;;18.00;99.90;;;;;;5052436;28;20847;-70
2022/10/22 10:11:44;;;;;;;2.63;1.40;;;18.00;99.90;;;;;;5071516;28;20456;-70
2022/10/22 10:14:24;;;;;;;10.50;6.23;;;17.90;99.90;;;;;;5072267;28;20412;-70
2022/10/22 10:16:55;;;;;;;3.33;1.93;;;17.80;99.90;;;;;;5072537;28;20794;-70
2022/10/22 10:19:51;;;;;;;6.97;1.20;;;17.70;99.90;;;;;;5070181;28;20424;-69
2022/10/22 10:22:40;;;;;;;2.23;1.33;;;17.70;99.90;;;;;;5052321;28;20435;-70
2022/10/22 10:25:30;;;;;;;3.17;0.97;;;17.60;99.90;;;;;;5051798;28;20421;-69
2022/10/22 10:28:24;;;;;;;5.30;1.07;;;17.60;99.90;;;;;;5052659;28;20500;-69
2022/10/22 10:31:09;;;;;;;2.60;1.00;;;17.50;99.90;;;;;;5052407;28;20453;-69
2022/10/22 10:34:04;;;;;;;1.60;1.00;;;17.50;99.90;;;;;;5053808;28;20413;-69
2022/10/22 10:36:32;;;;;;;2.43;1.70;;;17.50;99.90;;;;;;5052060;28;20416;-70
2022/10/22 10:39:08;;;;;;;3.10;1.10;;;17.50;99.90;;;;;;5052122;28;20775;-70
2022/10/22 10:41:43;;;;;;;1.73;1.00;;;17.50;99.90;;;;;;5051811;28;20440;-69
2022/10/22 10:44:14;;;;;;;6.90;1.93;;;17.50;99.90;;;;;;5058252;28;20783;-69
2022/10/22 10:46:46;;;;;;;3.83;1.20;;;17.50;99.90;;;;;;5071748;28;20942;-69
2022/10/22 10:49:25;;;;;;;1.90;0.90;;;17.50;99.90;;;;;;5071854;28;20449;-70
2022/10/22 10:52:05;;;;;;;2.63;1.03;;;17.50;99.90;;;;;;5070702;28;20475;-69
2022/10/22 10:54:53;;;;;;;1.67;0.80;;;17.50;99.90;;;;;;5072052;28;20405;-69
2022/10/22 10:58:16;;;;;;;3.67;0.90;;;17.40;99.90;;;;;;5059027;28;20425;-69
2022/10/22 11:01:09;;;;;;;2.00;0.90;;;17.40;99.90;;;;;;5049981;28;20424;-69
2022/10/22 11:03:55;;;;;;;1.53;1.17;;;17.40;99.90;;;;;;5049865;28;20393;-70
2022/10/22 11:06:21;;;;;;;2.10;1.00;;;17.50;99.90;;;;;;5051113;28;20409;-70
2022/10/22 11:08:56;;;;;;;2.67;0.80;;;17.60;99.90;;;;;;5062509;28;20801;-70
2022/10/22 11:11:38;;;;;;;2.70;1.60;;;17.70;99.90;;;;;;5072060;28;20443;-69
2022/10/22 11:14:12;;;;;;;1.67;0.80;;;17.70;99.90;;;;;;5070873;28;20724;-69
2022/10/22 11:16:50;;;;;;;3.97;1.80;;;17.70;99.90;;;;;;5071693;28;20404;-70
2022/10/22 11:19:18;;;;;;;2.37;1.13;;;17.80;99.90;;;;;;5071677;28;20470;-70
2022/10/22 11:22:15;;;;;;;7.03;3.10;;;17.80;99.90;;;;;;5054317;28;20429;-69
2022/10/22 11:24:52;;;;;;;7.20;1.60;;;17.80;99.90;;;;;;5051388;28;20751;-69
2022/10/22 11:28:00;;;;;;;2.10;0.93;;;17.80;99.90;;;;;;5051669;28;20393;-69
2022/10/22 11:30:35;;;;;;;1.50;0.90;;;17.80;99.90;;;;;;5054837;28;20452;-70
2022/10/22 11:33:04;;;;;;;2.50;1.43;;;17.80;99.90;;;;;;5071723;28;20746;-71
2022/10/22 11:35:38;;;;;;;3.93;0.90;;;17.80;99.90;;;;;;5071218;28;20931;-70
2022/10/22 11:38:06;;;;;;;3.47;1.30;;;17.80;99.90;;;;;;5071612;28;20432;-69
2022/10/22 11:40:35;;;;;;;6.37;1.53;;;17.80;99.90;;;;;;5067434;28;20421;-69
2022/10/22 11:43:09;;;;;;;3.53;1.30;;;17.80;99.90;;;;;;5051412;28;20406;-69
2022/10/22 11:45:38;;;;;;;3.10;1.00;;;17.80;99.90;;;;;;5051689;28;20898;-69
2022/10/22 11:48:14;;;;;;;5.23;1.80;;;17.80;99.90;;;;;;5051824;28;20829;-69
2022/10/22 11:51:01;;;;;;;4.50;1.40;;;17.90;99.90;;;;;;5051481;28;20876;-69
2022/10/22 11:53:34;;;;;;;2.20;0.90;;;17.90;99.90;;;;;;5065049;28;20440;-69
2022/10/22 11:56:05;;;;;;;1.30;0.70;;;17.90;99.90;;;;;;5075172;28;20401;-69
2022/10/22 11:58:43;;;;;;;1.20;0.70;;;17.90;99.90;;;;;;5075526;28;20421;-69
2022/10/22 12:01:09;;;;;;;5.33;1.03;;;18.00;99.90;;;;;;5075727;28;20404;-69
2022/10/22 12:03:39;;;;;;;3.10;1.00;;;18.00;99.90;;;;;;5074126;28;20413;-69
2022/10/22 12:06:11;;;;;;;4.83;1.40;;;18.20;99.90;;;;;;5055880;28;20178;-69
2022/10/22 12:08:50;;;;;;;3.03;0.83;;;18.40;99.90;;;;;;5087300;28;20531;-69
2022/10/22 12:11:19;;;;;;;1.20;0.70;;;18.70;99.90;;;;;;5087442;28;20464;-69
2022/10/22 12:14:02;;;;;;;1.53;0.90;;;19.00;99.90;;;;;;5054885;28;20401;-69
2022/10/22 12:16:31;;;;;;;2.80;1.07;;;19.40;99.90;;;;;;5059798;28;20923;-68
2022/10/22 12:19:21;;;;;;;1.30;0.70;;;19.80;99.90;;;;;;5074846;28;20435;-69
2022/10/22 12:21:51;;;;;;;1.43;0.87;;;20.00;99.90;;;;;;5074091;28;20412;-69
2022/10/22 12:24:20;;;;;;;1.60;0.90;;;20.40;99.90;;;;;;5068204;28;20781;-69
2022/10/22 12:26:48;;;;;;;4.00;0.80;;;20.60;99.90;;;;;;5054651;28;20460;-69
2022/10/22 12:29:15;;;;;;;2.07;0.80;;;21.00;99.90;;;;;;5054680;28;20436;-69
2022/10/22 12:31:43;;;;;;;11.27;7.00;;;21.40;99.90;;;;;;5054360;28;21023;-69
2022/10/22 12:34:22;;;;;;;1.30;1.00;;;21.70;99.90;;;;;;5058923;28;20424;-70
2022/10/22 12:36:49;;;;;;;1.80;0.90;;;22.10;99.90;;;;;;5074401;28;20411;-69
2022/10/22 12:39:17;;;;;;;1.50;0.80;;;22.00;99.90;;;;;;5074077;28;20417;-70
2022/10/22 12:41:43;;;;;;;5.67;1.30;;;22.40;99.90;;;;;;5074271;28;20415;-70
2022/10/22 12:44:14;;;;;;;1.60;1.00;;;24.00;99.90;;;;;;5066754;28;20417;-70
2022/10/22 12:46:41;;;;;;;1.60;0.97;;;26.30;99.90;;;;;;5086008;28;20183;-70
2022/10/22 12:49:20;;;;;;;2.40;1.07;;;28.40;92.20;;;;;;5053918;28;20445;-70
2022/10/22 12:51:47;;;;;;;2.40;1.00;;;30.00;75.50;;;;;;5054062;28;20465;-70
2022/10/22 12:54:32;;;;;;;4.63;1.20;;;31.50;61.50;;;;;;5061534;28;20420;-69
2022/10/22 12:56:59;;;;;;;2.00;0.90;;;32.20;58.50;;;;;;5074838;28;20400;-69
2022/10/22 12:59:35;;;;;;;2.20;1.73;;;33.30;55.80;;;;;;5074618;28;20456;-69
2022/10/22 13:02:03;;;;;;;2.20;1.33;;;34.00;52.90;;;;;;5074522;28;20473;-69
2022/10/22 13:04:36;;;;;;;3.33;1.10;;;34.00;51.20;;;;;;5074049;28;20436;-70